»·PEaware :: N2PD KSBP-KSNA

N2PD :: KSBP-KSNA

FLIGHT INFORMATION

Flight Status: Arrived
Operator: Privately registered:
United States
More flights under this callsign
Pilot: Daniel P. (20187)
Aircraft: SOCATA TBM-900
(TBM9)
More flights by this aircraft type
Origin: KSBP San Luis Co Regl
United States
Destination: KSNA John Wayne-Orange Co
United States
More flights between these airports :: More routes between these airports
Route: +RZS VTU V208 SXC SLI
File this flight plan on PilotEdge
Remarks: SBAP43
Altitude:
(Current/Filed)
90ft
Speed:
(Current/Filed)
200kts
Departed: 01-Dec-18 02:35 PM
Arrived: 01-Dec-18 03:42 PM
Distance/Time
Traveled:
166nm/1:07
Distance/Time
To Go:
Arrived

Flight Plot

Page will automatically refresh every two minutes.


Map Options




Map Legend


Flown Route
Filed Route
Departure Airport
Arrival Airport
Navaid (VOR, NDB)
Fix

Horizontal Profiles

Position Reports

Time Latitude Longitude Heading Altitude Ground
Speed
01-Dec-18 14:04 35.238073 -120.638639 270 195ft 0kts
01-Dec-18 14:05 35.238073 -120.638639 270 195ft 0kts
01-Dec-18 14:06 35.238073 -120.638639 270 195ft 0kts
01-Dec-18 14:07 35.238073 -120.638639 270 195ft 0kts
01-Dec-18 14:08 35.238073 -120.638639 270 195ft 0kts
01-Dec-18 14:09 35.238073 -120.638639 270 195ft 0kts
01-Dec-18 14:10 35.238073 -120.638639 270 195ft 0kts
01-Dec-18 14:11 35.238073 -120.638639 270 195ft 0kts
01-Dec-18 14:12 35.238073 -120.638639 270 195ft 0kts
01-Dec-18 14:13 35.238073 -120.638639 270 195ft 0kts
01-Dec-18 14:14 35.238073 -120.638639 270 195ft 0kts
01-Dec-18 14:15 35.238073 -120.638639 270 195ft 0kts
01-Dec-18 14:16 35.238073 -120.638639 270 195ft 0kts
01-Dec-18 14:17 35.238073 -120.638639 270 195ft 0kts
01-Dec-18 14:18 35.238073 -120.638639 270 195ft 0kts
01-Dec-18 14:19 35.238073 -120.638639 270 195ft 0kts
01-Dec-18 14:27 35.238071 -120.638642 269 195ft 0kts
01-Dec-18 14:28 35.238071 -120.638642 269 195ft 0kts
01-Dec-18 14:29 35.238071 -120.638642 269 195ft 0kts
01-Dec-18 14:30 35.238071 -120.638642 269 195ft 0kts
01-Dec-18 14:31 35.238071 -120.638642 269 195ft 0kts
01-Dec-18 14:32 35.238071 -120.638642 269 195ft 0kts
01-Dec-18 14:33 35.237870 -120.638845 208 195ft 6kts
01-Dec-18 14:34 35.235926 -120.636615 124 203ft 15kts
01-Dec-18 14:35 35.233635 -120.632594 124 212ft 13kts
01-Dec-18 14:36 35.233214 -120.632428 204 212ft 0kts
01-Dec-18 14:37 35.233214 -120.632428 204 212ft 0kts
01-Dec-18 14:38 35.233580 -120.634405 305 208ft 50kts
01-Dec-18 14:39 35.253807 -120.668591 302 957ft 162kts
01-Dec-18 14:40 35.272459 -120.704148 301 1823ft 143kts
01-Dec-18 14:41 35.292432 -120.742078 302 3135ft 162kts
01-Dec-18 14:42 35.320537 -120.795007 302 4978ft 162kts
01-Dec-18 14:43 35.335856 -120.841806 248 4988ft 207kts
01-Dec-18 14:44 35.279471 -120.820861 142 6860ft 215kts
01-Dec-18 14:45 35.237718 -120.779123 142 6991ft 245kts
01-Dec-18 14:46 35.177199 -120.715645 132 7539ft 232kts
01-Dec-18 14:47 35.143942 -120.668559 131 8884ft 210kts
01-Dec-18 14:48 35.094965 -120.598523 130 9078ft 250kts
01-Dec-18 14:49 35.056736 -120.543871 130 9074ft 256kts
01-Dec-18 14:50 35.002508 -120.466506 130 9077ft 258kts
01-Dec-18 14:51 34.963635 -120.411151 130 9078ft 258kts
01-Dec-18 14:52 34.918057 -120.346359 131 9076ft 253kts
01-Dec-18 14:53 34.874557 -120.284644 130 9069ft 251kts
01-Dec-18 14:54 34.829459 -120.220746 131 9062ft 251kts
01-Dec-18 14:55 34.784177 -120.156747 131 9052ft 251kts
01-Dec-18 14:56 34.738815 -120.092744 131 9045ft 251kts
01-Dec-18 14:57 34.693397 -120.028782 131 9044ft 250kts
01-Dec-18 14:58 34.647740 -119.964530 131 9040ft 251kts
01-Dec-18 14:59 34.601994 -119.900410 130 9027ft 252kts
01-Dec-18 15:00 34.556213 -119.836240 131 9016ft 252kts
01-Dec-18 15:01 34.510253 -119.771580 126 9000ft 253kts
01-Dec-18 15:02 34.471407 -119.700615 123 9001ft 253kts
01-Dec-18 15:03 34.432740 -119.629383 123 9001ft 253kts
01-Dec-18 15:04 34.393924 -119.558024 123 9002ft 253kts
01-Dec-18 15:05 34.355192 -119.486963 123 9006ft 253kts
01-Dec-18 15:06 34.316317 -119.415769 123 9009ft 252kts
01-Dec-18 15:07 34.278320 -119.346331 124 9011ft 252kts
01-Dec-18 15:08 34.240983 -119.278235 124 9008ft 251kts
01-Dec-18 15:09 34.202392 -119.207970 124 9007ft 250kts
01-Dec-18 15:10 34.163852 -119.137940 124 9008ft 250kts
01-Dec-18 15:11 34.125694 -119.068737 124 9012ft 249kts
01-Dec-18 15:12 34.074875 -119.014977 147 9019ft 245kts
01-Dec-18 15:13 34.019491 -118.967414 148 9017ft 245kts
01-Dec-18 15:14 33.963999 -118.919857 148 9013ft 244kts
01-Dec-18 15:15 33.908852 -118.872675 148 9007ft 243kts
01-Dec-18 15:16 33.854358 -118.826133 148 9003ft 241kts
01-Dec-18 15:17 33.799600 -118.779442 148 9001ft 240kts
01-Dec-18 15:18 33.745181 -118.733116 148 9003ft 240kts
01-Dec-18 15:19 33.690421 -118.686569 148 9007ft 241kts
01-Dec-18 15:20 33.635491 -118.639948 148 9000ft 242kts
01-Dec-18 15:21 33.580325 -118.593212 148 9001ft 244kts
01-Dec-18 15:22 33.523716 -118.545316 147 9004ft 254kts
01-Dec-18 15:23 33.506692 -118.469449 81 9005ft 259kts
01-Dec-18 15:24 33.513987 -118.383225 81 9000ft 260kts
01-Dec-18 15:25 33.521122 -118.300571 81 8993ft 259kts
01-Dec-18 15:26 33.528867 -118.214973 81 8986ft 259kts
01-Dec-18 15:27 33.536958 -118.130317 81 8980ft 260kts
01-Dec-18 15:28 33.545542 -118.044684 81 8976ft 260kts
01-Dec-18 15:29 33.554284 -117.958501 81 8978ft 259kts
01-Dec-18 15:30 33.588387 -117.894215 31 8769ft 231kts
01-Dec-18 15:31 33.633604 -117.853342 31 7959ft 182kts
01-Dec-18 15:32 33.666775 -117.821864 31 8006ft 154kts
01-Dec-18 15:33 33.700280 -117.790052 31 7985ft 158kts
01-Dec-18 15:34 33.735001 -117.757291 31 7982ft 161kts
01-Dec-18 15:35 33.770476 -117.723881 31 7977ft 161kts
01-Dec-18 15:36 33.806062 -117.690751 31 7316ft 161kts
01-Dec-18 15:37 33.841113 -117.681241 302 6625ft 133kts
01-Dec-18 15:38 33.863147 -117.716797 301 5941ft 134kts
01-Dec-18 15:39 33.851989 -117.744689 191 5166ft 138kts
01-Dec-18 15:40 33.818411 -117.757737 221 4991ft 134kts
01-Dec-18 15:41 33.785131 -117.790647 221 3533ft 173kts
01-Dec-18 15:42 33.748894 -117.825666 202 1882ft 167kts
01-Dec-18 15:43 33.710831 -117.846500 210 738ft 105kts
01-Dec-18 15:44 33.689223 -117.860258 210 267ft 80kts
01-Dec-18 15:45 33.674123 -117.870055 239 59ft 9kts
01-Dec-18 15:46 33.674153 -117.870618 302 59ft 0kts
01-Dec-18 15:47 33.674153 -117.870618 302 59ft 0kts
01-Dec-18 15:48 33.674214 -117.870735 301 59ft 0kts
01-Dec-18 15:49 33.674214 -117.870735 301 59ft 0kts
01-Dec-18 15:50 33.674214 -117.870735 301 59ft 0kts
01-Dec-18 15:51 33.674214 -117.870735 301 59ft 0kts
01-Dec-18 15:52 33.674214 -117.870735 301 59ft 0kts
01-Dec-18 15:53 33.674993 -117.871118 304 59ft 7kts
01-Dec-18 15:54 33.675121 -117.871447 209 59ft 0kts
01-Dec-18 15:55 33.675121 -117.871447 209 59ft 0kts
01-Dec-18 15:56 33.675121 -117.871447 209 59ft 0kts
01-Dec-18 15:57 33.675121 -117.871447 209 59ft 0kts
01-Dec-18 15:58 33.675121 -117.871447 209 59ft 0kts
01-Dec-18 15:59 33.675121 -117.871447 209 59ft 0kts

Navigation Log

Ident Type
Flight plan parsing failed, navigation log unavailable